Time;durP1;ratioP1;P1;durP2;ratioP2;P2;SDS_P1;SDS_P2;PMS_P1;PMS_P2;Temp;Humidity;BMP_temperature;BMP_pressure;BME280_temperature;BME280_humidity;BME280_pressure;Samples;Min_cycle;Max_cycle;Signal;HPM_P1;HPM_P2
2023/06/26 00:02:12;;;;;;;3.40;3.03;;;27.00;54.40;;;;;;5080348;28;20026;-68
2023/06/26 00:04:37;;;;;;;3.50;3.17;;;26.90;54.40;;;;;;5088137;28;20076;-68
2023/06/26 00:07:04;;;;;;;3.47;3.17;;;26.90;54.50;;;;;;5081928;28;20032;-68
2023/06/26 00:09:30;;;;;;;3.80;3.20;;;26.90;54.60;;;;;;5082153;27;20027;-69
2023/06/26 00:11:55;;;;;;;3.92;3.47;;;26.90;54.70;;;;;;5084939;28;20025;-69
2023/06/26 00:14:21;;;;;;;3.90;3.50;;;26.80;54.80;;;;;;5084614;28;20023;-68
2023/06/26 00:16:49;;;;;;;3.60;3.28;;;26.80;54.90;;;;;;5083111;28;20100;-68
2023/06/26 00:19:18;;;;;;;3.63;3.25;;;26.70;55.00;;;;;;5082625;28;20026;-68
2023/06/26 00:21:47;;;;;;;3.97;3.40;;;26.70;55.10;;;;;;5087421;28;20429;-68
2023/06/26 00:24:16;;;;;;;3.50;3.20;;;26.70;55.20;;;;;;5085390;28;20020;-68
2023/06/26 00:26:42;;;;;;;3.72;3.35;;;26.60;55.30;;;;;;5086397;28;20024;-69
2023/06/26 00:29:07;;;;;;;3.58;3.05;;;26.60;55.30;;;;;;5085084;28;20046;-68
2023/06/26 00:31:34;;;;;;;3.78;3.47;;;26.60;55.30;;;;;;5085533;28;20026;-68
2023/06/26 00:34:00;;;;;;;4.20;3.80;;;26.60;55.40;;;;;;5082407;28;20023;-68
2023/06/26 00:36:26;;;;;;;4.10;3.50;;;26.50;55.70;;;;;;5086009;28;20024;-68
2023/06/26 00:38:52;;;;;;;4.18;3.10;;;26.40;55.70;;;;;;5090542;28;20023;-68
2023/06/26 00:41:18;;;;;;;3.38;3.08;;;26.40;55.80;;;;;;5085441;28;20486;-68
2023/06/26 00:43:43;;;;;;;3.28;2.97;;;26.40;55.80;;;;;;5082428;28;20173;-68
2023/06/26 00:46:11;;;;;;;4.15;3.10;;;26.30;55.70;;;;;;5086998;28;20498;-68
2023/06/26 00:48:38;;;;;;;4.00;3.60;;;26.30;55.70;;;;;;5098456;28;20019;-68
2023/06/26 00:51:04;;;;;;;3.83;3.42;;;26.30;55.80;;;;;;5100887;28;20383;-68
2023/06/26 00:53:31;;;;;;;5.22;3.50;;;26.30;55.90;;;;;;5100651;28;20031;-68
2023/06/26 00:55:57;;;;;;;3.90;3.47;;;26.20;55.90;;;;;;5101235;28;20028;-69
2023/06/26 00:58:24;;;;;;;3.85;3.45;;;26.20;55.90;;;;;;5087099;28;20027;-69
2023/06/26 01:00:51;;;;;;;4.47;4.07;;;26.20;56.00;;;;;;5097025;28;20056;-69
2023/06/26 01:03:17;;;;;;;4.72;4.22;;;26.20;56.40;;;;;;5088709;28;20031;-68
2023/06/26 01:05:45;;;;;;;3.88;3.40;;;26.10;56.50;;;;;;5105093;28;20023;-68
2023/06/26 01:08:12;;;;;;;4.40;3.97;;;26.10;56.50;;;;;;5089170;28;20390;-68
2023/06/26 01:10:38;;;;;;;5.63;4.13;;;26.10;56.60;;;;;;5094738;28;20023;-68
2023/06/26 01:13:04;;;;;;;4.50;4.03;;;26.00;56.70;;;;;;5076313;28;20035;-68
2023/06/26 01:15:30;;;;;;;5.88;4.60;;;26.00;56.70;;;;;;5102664;28;20092;-68
2023/06/26 01:18:01;;;;;;;4.63;4.22;;;26.00;57.10;;;;;;5094922;28;20495;-68
2023/06/26 01:20:28;;;;;;;4.57;4.00;;;25.90;57.10;;;;;;5080046;28;20077;-68
2023/06/26 01:23:37;;;;;;;5.18;4.45;;;25.90;57.10;;;;;;5078455;28;20035;-68
2023/06/26 01:26:35;;;;;;;4.70;4.05;;;25.90;57.20;;;;;;5085267;28;20055;-68
2023/06/26 01:29:04;;;;;;;4.97;4.00;;;25.80;57.30;;;;;;5038399;28;20041;-68
2023/06/26 01:31:30;;;;;;;4.38;3.97;;;25.80;57.40;;;;;;5078146;28;20475;-68
2023/06/26 01:33:58;;;;;;;4.88;3.83;;;25.80;57.60;;;;;;5087818;28;20039;-68
2023/06/26 01:36:24;;;;;;;4.40;4.00;;;25.80;57.60;;;;;;5093714;28;20035;-68
2023/06/26 01:38:50;;;;;;;4.85;4.00;;;25.80;57.70;;;;;;5095332;28;20024;-68
2023/06/26 01:41:17;;;;;;;4.22;3.78;;;25.80;57.80;;;;;;5106364;28;20058;-68
2023/06/26 01:44:03;;;;;;;4.82;4.32;;;25.80;57.80;;;;;;5086088;28;20028;-68
2023/06/26 01:46:35;;;;;;;6.18;4.85;;;25.70;58.00;;;;;;5091151;28;20067;-69
2023/06/26 01:49:26;;;;;;;6.15;4.70;;;25.70;58.40;;;;;;5084499;28;20020;-68
2023/06/26 01:52:03;;;;;;;5.70;4.63;;;25.60;58.50;;;;;;5089462;28;20078;-69
2023/06/26 01:54:33;;;;;;;8.23;6.20;;;25.50;58.80;;;;;;5094944;28;20537;-68
2023/06/26 01:57:00;;;;;;;5.82;5.22;;;25.40;59.20;;;;;;5086743;28;20040;-68
2023/06/26 01:59:28;;;;;;;5.50;4.90;;;25.40;59.40;;;;;;5093790;28;20123;-68
2023/06/26 02:01:54;;;;;;;4.93;4.43;;;25.40;59.30;;;;;;5087165;28;20395;-68
2023/06/26 02:04:19;;;;;;;6.90;5.15;;;25.30;59.20;;;;;;5089535;28;20707;-68
2023/06/26 02:06:45;;;;;;;5.40;4.80;;;25.30;59.40;;;;;;5085129;28;20033;-69
2023/06/26 02:09:11;;;;;;;6.07;5.35;;;25.30;59.50;;;;;;5080168;28;20028;-69
2023/06/26 02:11:36;;;;;;;7.00;4.60;;;25.20;59.70;;;;;;5097530;28;20478;-69
2023/06/26 02:14:02;;;;;;;4.20;3.65;;;25.10;59.70;;;;;;5082700;28;20105;-69
2023/06/26 02:16:28;;;;;;;6.00;4.88;;;25.10;59.70;;;;;;5092293;28;20108;-68
2023/06/26 02:18:54;;;;;;;5.18;4.25;;;25.00;59.90;;;;;;5096475;28;20038;-69
2023/06/26 02:21:20;;;;;;;5.95;4.30;;;25.00;60.20;;;;;;5091069;28;20028;-69
2023/06/26 02:23:45;;;;;;;5.53;4.13;;;24.80;60.30;;;;;;5097387;28;20059;-69
2023/06/26 02:26:11;;;;;;;5.43;3.63;;;24.70;60.50;;;;;;5087895;28;20089;-69
2023/06/26 02:28:36;;;;;;;4.95;3.80;;;24.60;60.60;;;;;;5093803;28;20024;-69
2023/06/26 02:31:04;;;;;;;4.50;3.45;;;24.50;60.80;;;;;;5091067;28;20019;-69
2023/06/26 02:33:30;;;;;;;4.47;3.55;;;24.40;61.00;;;;;;5097666;28;20465;-69
2023/06/26 02:35:55;;;;;;;4.30;3.50;;;24.40;61.30;;;;;;5086549;28;20020;-69
2023/06/26 02:38:21;;;;;;;3.50;3.00;;;24.30;61.40;;;;;;5095364;28;20043;-69
2023/06/26 02:40:47;;;;;;;4.50;2.97;;;24.30;61.40;;;;;;5084237;28;20112;-69
2023/06/26 02:43:12;;;;;;;5.10;3.50;;;24.20;61.50;;;;;;5093689;28;20486;-69
2023/06/26 02:45:38;;;;;;;4.75;3.10;;;24.20;61.60;;;;;;5089895;28;20386;-69
2023/06/26 02:48:03;;;;;;;4.25;3.25;;;24.10;62.00;;;;;;5079757;28;20082;-69
2023/06/26 02:50:29;;;;;;;4.50;3.10;;;24.10;62.10;;;;;;5091869;28;20031;-68
2023/06/26 02:52:55;;;;;;;4.90;3.00;;;24.00;62.10;;;;;;5096897;28;20383;-68
2023/06/26 02:55:21;;;;;;;5.40;2.92;;;24.00;62.20;;;;;;5096303;28;20378;-68
2023/06/26 02:57:46;;;;;;;4.55;2.60;;;23.90;62.50;;;;;;5091383;28;20025;-68
2023/06/26 03:00:13;;;;;;;5.38;3.30;;;23.80;62.60;;;;;;5094662;28;21124;-68
2023/06/26 03:02:38;;;;;;;4.30;3.20;;;23.80;62.90;;;;;;5085616;28;20028;-68
2023/06/26 03:05:04;;;;;;;3.45;2.65;;;23.70;62.80;;;;;;5098754;28;20027;-68
2023/06/26 03:07:30;;;;;;;4.18;2.40;;;23.70;62.90;;;;;;5097066;28;20389;-68
2023/06/26 03:09:56;;;;;;;3.55;2.58;;;23.70;62.90;;;;;;5097355;28;20013;-68
2023/06/26 03:12:21;;;;;;;3.88;2.85;;;23.70;63.30;;;;;;5091623;28;20019;-68
2023/06/26 03:14:47;;;;;;;5.05;3.10;;;23.60;63.80;;;;;;5086677;28;20059;-68
2023/06/26 03:17:12;;;;;;;4.50;2.80;;;23.50;64.10;;;;;;5104969;28;20107;-68
2023/06/26 03:19:38;;;;;;;3.97;2.85;;;23.40;64.10;;;;;;5091017;28;20086;-69
2023/06/26 03:22:04;;;;;;;5.63;2.97;;;23.40;64.20;;;;;;5101194;28;20058;-68
2023/06/26 03:24:29;;;;;;;3.40;2.50;;;23.40;64.30;;;;;;5099097;28;20027;-68
2023/06/26 03:26:55;;;;;;;3.78;2.47;;;23.30;64.40;;;;;;5081465;28;20029;-68
2023/06/26 03:29:20;;;;;;;3.53;2.47;;;23.40;64.60;;;;;;5094107;28;20080;-68
2023/06/26 03:31:46;;;;;;;4.78;2.80;;;23.30;64.80;;;;;;5090722;28;20497;-69
2023/06/26 03:34:12;;;;;;;5.13;2.70;;;23.30;65.20;;;;;;5089439;28;20207;-68
2023/06/26 03:36:38;;;;;;;3.85;2.63;;;23.30;65.20;;;;;;5085358;28;20029;-68
2023/06/26 03:39:04;;;;;;;5.50;3.13;;;23.20;65.50;;;;;;5101771;28;20032;-69
2023/06/26 03:41:29;;;;;;;4.53;2.67;;;23.20;65.80;;;;;;5089744;28;20023;-68
2023/06/26 03:43:56;;;;;;;5.82;2.67;;;23.10;65.90;;;;;;5100399;28;20016;-68
2023/06/26 03:46:22;;;;;;;4.65;2.70;;;23.10;66.00;;;;;;5090096;28;20016;-68
2023/06/26 03:48:48;;;;;;;5.50;2.88;;;23.10;66.00;;;;;;5082236;28;20378;-68
2023/06/26 03:51:14;;;;;;;4.55;2.42;;;23.00;66.50;;;;;;5091589;28;20037;-68
2023/06/26 03:53:40;;;;;;;5.28;2.50;;;23.10;66.40;;;;;;5088243;28;20024;-68
2023/06/26 03:56:05;;;;;;;5.05;2.80;;;23.00;66.30;;;;;;5084807;28;20032;-68
2023/06/26 03:58:31;;;;;;;4.00;2.80;;;23.00;66.70;;;;;;5075836;28;20037;-67
2023/06/26 04:00:57;;;;;;;5.60;2.92;;;23.00;66.90;;;;;;5078377;28;20066;-67
2023/06/26 04:03:24;;;;;;;5.43;2.95;;;22.90;67.20;;;;;;5092367;28;20020;-67
2023/06/26 04:05:49;;;;;;;4.68;2.90;;;22.90;67.40;;;;;;5087559;28;20031;-67
2023/06/26 04:08:15;;;;;;;5.07;2.67;;;22.90;67.40;;;;;;5092736;28;20444;-68
2023/06/26 04:10:40;;;;;;;7.22;2.90;;;22.90;67.50;;;;;;5094868;28;20024;-68
2023/06/26 04:13:06;;;;;;;6.57;3.03;;;22.80;68.00;;;;;;5085433;28;20024;-68
2023/06/26 04:15:32;;;;;;;5.55;2.78;;;22.80;68.00;;;;;;5094639;28;20017;-67
2023/06/26 04:17:57;;;;;;;4.75;2.78;;;22.80;68.20;;;;;;5096366;28;20072;-67
2023/06/26 04:20:23;;;;;;;5.65;2.75;;;22.80;68.20;;;;;;5086150;28;20028;-67
2023/06/26 04:22:48;;;;;;;5.85;2.70;;;22.80;68.40;;;;;;5088629;28;20447;-68
2023/06/26 04:25:14;;;;;;;5.55;2.90;;;22.80;68.50;;;;;;5101007;28;20115;-68
2023/06/26 04:27:39;;;;;;;6.38;3.28;;;22.80;68.60;;;;;;5098367;28;20024;-68
2023/06/26 04:30:06;;;;;;;7.03;3.33;;;22.80;69.00;;;;;;5095708;28;20032;-68
2023/06/26 04:32:31;;;;;;;5.43;2.67;;;22.80;68.90;;;;;;5089915;28;20134;-68
2023/06/26 04:34:57;;;;;;;6.70;3.15;;;22.80;69.10;;;;;;5097936;28;20115;-68
2023/06/26 04:37:24;;;;;;;6.32;2.85;;;22.80;69.60;;;;;;5091005;28;20036;-68
2023/06/26 04:39:50;;;;;;;5.65;3.55;;;22.70;69.50;;;;;;5095461;28;20018;-69
2023/06/26 04:42:15;;;;;;;5.70;3.00;;;22.70;69.80;;;;;;5097414;28;20029;-69
2023/06/26 04:44:41;;;;;;;6.35;2.83;;;22.60;69.70;;;;;;5100763;28;20024;-68
2023/06/26 04:47:07;;;;;;;7.68;3.53;;;22.70;69.60;;;;;;5088943;28;20502;-68
2023/06/26 04:49:33;;;;;;;6.22;3.05;;;22.60;70.10;;;;;;5095478;28;20020;-68
2023/06/26 04:52:00;;;;;;;4.63;2.90;;;22.70;70.00;;;;;;5089007;28;20557;-68
2023/06/26 04:54:25;;;;;;;7.07;3.20;;;22.70;70.00;;;;;;5104647;28;20015;-68
2023/06/26 04:56:51;;;;;;;5.43;2.95;;;22.70;70.00;;;;;;5092900;28;20107;-68
2023/06/26 04:59:17;;;;;;;7.95;3.13;;;22.70;69.80;;;;;;5095935;28;20024;-68
2023/06/26 05:01:47;;;;;;;5.88;3.25;;;22.70;69.90;;;;;;5078330;28;20032;-68
2023/06/26 05:04:13;;;;;;;8.15;3.38;;;22.70;70.10;;;;;;5103928;28;20030;-68
2023/06/26 05:06:38;;;;;;;4.80;2.83;;;22.70;70.10;;;;;;5096888;28;20114;-68
2023/06/26 05:09:04;;;;;;;11.07;4.25;;;22.70;70.10;;;;;;5104914;28;20342;-68
2023/06/26 05:11:29;;;;;;;8.55;3.58;;;23.00;70.10;;;;;;5100327;28;20101;-68
2023/06/26 05:13:55;;;;;;;6.22;3.40;;;23.30;69.30;;;;;;5096729;28;20023;-68
2023/06/26 05:16:20;;;;;;;6.80;3.00;;;23.60;68.30;;;;;;5097159;28;20043;-68
2023/06/26 05:18:46;;;;;;;8.02;3.40;;;23.90;67.70;;;;;;5094419;28;20032;-68
2023/06/26 05:21:12;;;;;;;8.52;3.33;;;24.10;67.20;;;;;;5081750;28;20074;-68
2023/06/26 05:23:37;;;;;;;6.28;3.45;;;24.40;66.70;;;;;;5104312;28;20024;-68
2023/06/26 05:26:03;;;;;;;6.50;3.33;;;24.60;66.00;;;;;;5089306;28;20063;-67
2023/06/26 05:28:33;;;;;;;7.82;3.38;;;24.80;65.50;;;;;;5100467;28;20031;-68
2023/06/26 05:30:59;;;;;;;7.05;2.95;;;25.00;65.00;;;;;;5099129;28;20175;-68
2023/06/26 05:33:26;;;;;;;6.43;3.33;;;25.20;64.60;;;;;;5088740;28;20452;-68
2023/06/26 05:35:52;;;;;;;5.47;2.90;;;25.20;64.40;;;;;;5089130;28;20028;-68
2023/06/26 05:38:18;;;;;;;5.63;2.97;;;25.00;64.40;;;;;;5086359;28;20413;-68
2023/06/26 05:40:45;;;;;;;7.32;3.22;;;25.00;64.70;;;;;;5084271;28;20028;-68
2023/06/26 05:43:10;;;;;;;5.45;3.20;;;24.90;64.80;;;;;;5091501;28;20028;-68
2023/06/26 05:45:36;;;;;;;6.53;3.17;;;24.70;64.80;;;;;;5081609;28;20047;-68
2023/06/26 05:48:02;;;;;;;4.93;2.58;;;24.60;65.00;;;;;;5088625;28;20028;-68
2023/06/26 05:50:28;;;;;;;6.70;2.85;;;24.90;64.90;;;;;;5084586;28;20024;-69
2023/06/26 05:52:54;;;;;;;8.75;3.78;;;25.10;65.10;;;;;;5087074;28;20486;-69
2023/06/26 05:55:20;;;;;;;5.93;2.90;;;25.10;64.10;;;;;;5083707;28;20030;-68
2023/06/26 05:57:47;;;;;;;5.30;2.90;;;25.10;63.90;;;;;;5086452;28;21526;-69
2023/06/26 06:00:13;;;;;;;5.75;2.95;;;25.10;63.80;;;;;;5087973;28;20051;-69
2023/06/26 06:02:41;;;;;;;7.32;3.13;;;25.10;63.70;;;;;;5087145;28;20141;-69
2023/06/26 06:05:07;;;;;;;7.80;3.15;;;25.10;63.50;;;;;;5104863;28;20069;-69
2023/06/26 06:07:33;;;;;;;4.43;2.53;;;25.00;62.90;;;;;;5088623;28;20529;-68
2023/06/26 06:09:59;;;;;;;5.07;2.40;;;24.90;62.70;;;;;;5087246;28;20511;-69
2023/06/26 06:12:25;;;;;;;5.30;2.70;;;25.00;62.50;;;;;;5083286;28;20058;-69
2023/06/26 06:14:52;;;;;;;6.13;2.70;;;25.00;62.00;;;;;;5081992;28;20071;-69
2023/06/26 06:17:18;;;;;;;5.95;2.30;;;25.10;61.90;;;;;;5080024;28;20028;-69
2023/06/26 06:19:44;;;;;;;7.63;2.80;;;25.10;61.50;;;;;;5075472;28;20028;-68
2023/06/26 06:22:10;;;;;;;4.57;2.40;;;25.10;61.20;;;;;;5075305;28;20043;-69
2023/06/26 06:24:36;;;;;;;3.40;2.53;;;25.20;61.20;;;;;;5084290;28;20025;-69
2023/06/26 06:27:01;;;;;;;3.83;2.20;;;25.30;60.70;;;;;;5079577;28;20060;-68
2023/06/26 06:29:27;;;;;;;3.42;1.90;;;25.50;60.50;;;;;;5101352;28;20027;-68
2023/06/26 06:31:52;;;;;;;3.20;1.85;;;25.50;60.00;;;;;;5088850;28;21510;-68
2023/06/26 06:34:18;;;;;;;4.13;2.10;;;25.70;59.80;;;;;;5096494;28;20024;-68
2023/06/26 06:36:43;;;;;;;4.13;2.05;;;25.70;59.30;;;;;;5090374;28;20028;-68
2023/06/26 06:39:09;;;;;;;3.25;2.17;;;25.80;58.90;;;;;;5093717;28;20474;-69
2023/06/26 06:41:34;;;;;;;2.58;1.75;;;25.90;58.50;;;;;;5088717;28;20028;-69
2023/06/26 06:44:00;;;;;;;3.63;1.92;;;25.90;58.30;;;;;;5085698;28;20119;-69
2023/06/26 06:46:27;;;;;;;3.83;1.80;;;26.10;58.10;;;;;;5081846;28;20073;-69
2023/06/26 06:48:53;;;;;;;3.53;1.88;;;26.10;57.70;;;;;;5080707;28;20024;-69
2023/06/26 06:51:18;;;;;;;2.53;1.90;;;26.30;57.50;;;;;;5084872;28;20028;-69
2023/06/26 06:53:44;;;;;;;3.75;2.20;;;26.40;56.80;;;;;;5081006;28;20024;-69
2023/06/26 06:56:09;;;;;;;2.47;1.92;;;26.50;56.30;;;;;;5085451;28;20024;-69
2023/06/26 06:58:35;;;;;;;6.20;2.30;;;26.50;56.10;;;;;;5085915;28;20025;-69
2023/06/26 07:01:04;;;;;;;3.65;2.10;;;26.40;56.00;;;;;;5076136;28;20447;-69
2023/06/26 07:03:30;;;;;;;4.05;2.42;;;26.40;55.80;;;;;;5091140;28;20057;-69
2023/06/26 07:05:56;;;;;;;3.72;2.15;;;26.30;55.70;;;;;;5087436;28;20021;-69
2023/06/26 07:08:22;;;;;;;3.50;2.20;;;26.20;55.80;;;;;;5102812;28;20493;-69
2023/06/26 07:10:47;;;;;;;4.60;1.80;;;26.20;55.90;;;;;;5080330;28;20024;-69
2023/06/26 07:13:13;;;;;;;2.22;1.88;;;26.20;55.90;;;;;;5092317;28;20017;-69
2023/06/26 07:15:39;;;;;;;3.95;2.03;;;26.30;55.80;;;;;;5093144;28;20070;-69
2023/06/26 07:18:05;;;;;;;4.40;2.25;;;26.40;55.50;;;;;;5091962;28;20517;-69
2023/06/26 07:20:30;;;;;;;3.17;1.88;;;26.40;55.20;;;;;;5094574;28;20055;-69
2023/06/26 07:22:56;;;;;;;3.38;1.90;;;26.40;55.30;;;;;;5083031;28;20050;-69
2023/06/26 07:25:21;;;;;;;3.40;2.22;;;26.50;55.10;;;;;;5085672;28;20481;-69
2023/06/26 07:27:47;;;;;;;2.17;1.73;;;26.70;54.90;;;;;;5086696;28;20055;-68
2023/06/26 07:30:13;;;;;;;2.85;1.83;;;26.50;54.80;;;;;;5083670;28;20073;-69
2023/06/26 07:32:40;;;;;;;2.25;1.77;;;26.50;55.00;;;;;;5078544;28;20081;-69
2023/06/26 07:35:06;;;;;;;2.38;1.73;;;26.60;55.00;;;;;;5077021;28;20040;-69
2023/06/26 07:37:32;;;;;;;2.65;1.90;;;26.60;54.90;;;;;;5081989;28;20061;-69
2023/06/26 07:39:58;;;;;;;2.38;1.67;;;26.50;55.00;;;;;;5080380;28;20031;-69
2023/06/26 07:42:23;;;;;;;4.28;1.75;;;26.60;55.10;;;;;;5076160;28;20082;-68
2023/06/26 07:44:49;;;;;;;2.67;1.98;;;26.50;54.90;;;;;;5075557;28;20517;-69
2023/06/26 07:47:15;;;;;;;2.40;1.65;;;26.40;55.00;;;;;;5084021;28;20067;-69
2023/06/26 07:49:41;;;;;;;4.00;1.98;;;26.40;55.40;;;;;;5083378;28;20027;-69
2023/06/26 07:52:07;;;;;;;3.20;2.00;;;26.40;55.20;;;;;;5081695;28;20035;-69
2023/06/26 07:54:32;;;;;;;4.32;2.13;;;26.50;55.10;;;;;;5086164;28;20099;-68
2023/06/26 07:57:04;;;;;;;3.70;1.85;;;26.40;55.00;;;;;;5082366;28;20119;-69
2023/06/26 07:59:30;;;;;;;2.67;1.95;;;26.30;55.10;;;;;;5078348;28;20546;-69
2023/06/26 08:01:57;;;;;;;2.60;1.95;;;26.40;55.30;;;;;;5078765;28;20028;-69
2023/06/26 08:04:29;;;;;;;3.15;1.98;;;26.40;55.30;;;;;;5076241;28;20899;-69
2023/06/26 08:06:56;;;;;;;4.32;1.98;;;26.30;55.50;;;;;;5080477;28;20532;-69
2023/06/26 08:09:24;;;;;;;3.30;1.95;;;26.10;55.70;;;;;;5077302;28;20028;-68
2023/06/26 08:11:50;;;;;;;2.72;1.98;;;26.00;55.90;;;;;;5077451;28;20035;-68
2023/06/26 08:14:16;;;;;;;2.45;1.60;;;25.90;56.00;;;;;;5083051;28;20096;-69
2023/06/26 08:16:43;;;;;;;3.28;1.70;;;26.00;56.10;;;;;;5081396;28;20032;-70
2023/06/26 08:19:10;;;;;;;2.05;1.45;;;26.20;56.10;;;;;;5080685;28;20119;-69
2023/06/26 08:21:35;;;;;;;3.00;1.80;;;26.30;56.00;;;;;;5078687;28;20025;-69
2023/06/26 08:24:02;;;;;;;5.07;1.90;;;26.40;55.80;;;;;;5078227;28;20037;-69
2023/06/26 08:26:28;;;;;;;3.85;1.60;;;26.40;55.60;;;;;;5076522;28;20379;-69
2023/06/26 08:28:53;;;;;;;3.28;2.00;;;26.40;55.60;;;;;;5082089;28;20032;-69
2023/06/26 08:31:20;;;;;;;3.72;2.00;;;26.50;55.40;;;;;;5080167;28;20032;-69
2023/06/26 08:33:46;;;;;;;2.53;1.90;;;26.60;55.10;;;;;;5078386;28;20567;-69
2023/06/26 08:36:11;;;;;;;4.10;1.80;;;26.50;55.00;;;;;;5075845;28;20060;-69
2023/06/26 08:38:40;;;;;;;2.28;1.70;;;26.40;55.00;;;;;;5079690;28;20031;-69
2023/06/26 08:41:06;;;;;;;2.42;1.63;;;26.10;55.20;;;;;;5084286;28;20021;-69
2023/06/26 08:43:31;;;;;;;2.92;1.98;;;25.90;55.70;;;;;;5087914;28;20619;-69
2023/06/26 08:45:57;;;;;;;3.67;2.28;;;25.80;56.00;;;;;;5077826;28;21376;-69
2023/06/26 08:48:23;;;;;;;3.17;1.88;;;25.90;56.00;;;;;;5085026;28;20042;-69
2023/06/26 08:50:52;;;;;;;2.60;1.85;;;26.10;56.00;;;;;;5074591;28;20379;-69
2023/06/26 08:53:26;;;;;;;2.72;1.98;;;26.40;55.60;;;;;;5084633;28;20024;-69
2023/06/26 08:55:53;;;;;;;3.33;1.98;;;26.50;55.00;;;;;;5087392;28;20365;-69
2023/06/26 08:58:19;;;;;;;2.67;1.60;;;26.30;54.40;;;;;;5083892;28;20149;-69
2023/06/26 09:00:45;;;;;;;3.08;2.00;;;26.20;54.50;;;;;;5072945;28;21476;-69
2023/06/26 09:03:12;;;;;;;2.42;1.80;;;26.00;54.60;;;;;;5085213;28;20028;-69
2023/06/26 09:05:38;;;;;;;3.15;1.83;;;26.00;55.00;;;;;;5083515;28;20024;-68
2023/06/26 09:08:04;;;;;;;3.80;1.67;;;26.10;55.00;;;;;;5077811;28;20093;-69
2023/06/26 09:10:29;;;;;;;2.85;1.92;;;26.20;54.50;;;;;;5078689;28;20047;-68
2023/06/26 09:12:58;;;;;;;4.47;1.75;;;26.30;54.10;;;;;;5081992;28;20016;-69
2023/06/26 09:15:24;;;;;;;3.55;1.88;;;26.40;53.80;;;;;;5081402;28;20112;-69
2023/06/26 09:17:50;;;;;;;3.30;1.90;;;26.30;53.90;;;;;;5078787;28;20099;-68
2023/06/26 09:20:16;;;;;;;3.30;1.63;;;26.30;54.00;;;;;;5079401;28;20024;-68
2023/06/26 09:22:47;;;;;;;2.63;1.80;;;26.30;53.90;;;;;;5078668;28;20078;-69
2023/06/26 09:25:12;;;;;;;3.08;1.40;;;26.40;53.70;;;;;;5079531;28;20539;-68
2023/06/26 09:27:39;;;;;;;3.47;1.63;;;26.40;53.30;;;;;;5084590;28;20047;-68
2023/06/26 09:30:07;;;;;;;1.73;1.30;;;26.40;53.00;;;;;;5082624;28;20111;-68
2023/06/26 09:32:37;;;;;;;2.08;1.20;;;26.60;52.70;;;;;;5081539;28;20032;-68
2023/06/26 09:35:04;;;;;;;2.17;1.27;;;26.60;52.10;;;;;;5084458;28;20023;-69
2023/06/26 09:37:30;;;;;;;2.35;1.15;;;26.60;51.60;;;;;;5082526;28;20035;-69
2023/06/26 09:39:55;;;;;;;2.53;1.23;;;26.70;51.60;;;;;;5078000;28;20036;-68
2023/06/26 09:42:21;;;;;;;3.13;1.23;;;26.80;51.60;;;;;;5086224;28;20058;-68
2023/06/26 09:44:48;;;;;;;1.75;1.00;;;26.90;51.20;;;;;;5083850;28;20028;-69
2023/06/26 09:47:17;;;;;;;4.20;1.17;;;27.00;50.70;;;;;;5082452;28;20108;-69
2023/06/26 09:49:43;;;;;;;1.27;0.90;;;27.10;49.50;;;;;;5078299;28;20031;-68
2023/06/26 09:52:09;;;;;;;1.95;1.00;;;27.10;48.50;;;;;;5077356;28;20023;-69
2023/06/26 09:54:35;;;;;;;3.50;1.10;;;27.20;47.80;;;;;;5075341;28;20365;-69
2023/06/26 09:57:16;;;;;;;2.97;1.00;;;27.20;47.70;;;;;;5083189;28;20644;-69
2023/06/26 09:59:45;;;;;;;2.50;0.90;;;27.20;47.90;;;;;;5081977;28;20028;-69
2023/06/26 10:02:11;;;;;;;2.80;1.42;;;27.40;48.00;;;;;;5083327;28;20024;-68
2023/06/26 10:04:38;;;;;;;2.17;0.90;;;27.30;47.50;;;;;;5075606;28;20043;-68
2023/06/26 10:07:10;;;;;;;1.63;0.90;;;27.00;47.40;;;;;;5077851;28;20402;-68
2023/06/26 10:09:41;;;;;;;2.55;1.00;;;26.70;47.40;;;;;;5080158;28;20042;-68
2023/06/26 10:12:12;;;;;;;1.30;0.82;;;26.60;47.70;;;;;;5079497;28;20028;-68
2023/06/26 10:14:41;;;;;;;4.00;1.08;;;26.30;48.10;;;;;;5083776;28;20028;-68
2023/06/26 10:17:13;;;;;;;2.95;1.00;;;26.20;48.50;;;;;;5075288;28;20032;-68
2023/06/26 10:19:42;;;;;;;1.63;1.00;;;26.20;48.80;;;;;;5080434;28;20032;-68
2023/06/26 10:22:08;;;;;;;1.90;1.00;;;26.20;48.80;;;;;;5077719;28;20112;-68
2023/06/26 10:24:36;;;;;;;2.58;1.00;;;26.20;48.90;;;;;;5077223;28;20024;-68
2023/06/26 10:27:08;;;;;;;2.40;1.13;;;26.10;48.00;;;;;;5078890;28;20029;-68
2023/06/26 10:29:35;;;;;;;;;;;26.20;47.20;;;;;;5078713;28;20027;-68
2023/06/26 10:32:04;;;;;;;2.08;0.98;;;26.30;46.90;;;;;;5079509;28;19908;-68
2023/06/26 10:34:30;;;;;;;1.98;1.15;;;26.40;46.80;;;;;;5082814;28;20501;-68
2023/06/26 10:37:04;;;;;;;2.42;1.10;;;26.40;46.60;;;;;;5080286;28;20028;-68
2023/06/26 10:39:49;;;;;;;2.47;1.00;;;26.30;46.40;;;;;;5084496;28;20024;-68
2023/06/26 10:42:21;;;;;;;2.00;0.90;;;26.30;46.40;;;;;;5079209;28;20065;-68
2023/06/26 10:44:47;;;;;;;2.63;1.05;;;26.50;46.20;;;;;;5080421;28;20032;-68
2023/06/26 10:47:45;;;;;;;1.60;1.00;;;26.60;45.80;;;;;;5078882;28;20033;-68
2023/06/26 10:50:30;;;;;;;2.05;1.10;;;26.70;45.80;;;;;;5057584;28;20036;-68
2023/06/26 10:53:09;;;;;;;1.00;0.90;;;26.70;45.70;;;;;;5079905;28;20475;-68
2023/06/26 10:55:35;;;;;;;5.18;1.20;;;26.80;45.70;;;;;;5082343;28;20027;-68
2023/06/26 10:58:02;;;;;;;1.70;0.90;;;26.80;45.30;;;;;;5083416;28;20099;-69
2023/06/26 11:00:28;;;;;;;1.33;1.00;;;26.90;45.50;;;;;;5087324;28;20024;-69
2023/06/26 11:02:54;;;;;;;2.17;0.90;;;27.00;45.20;;;;;;5083093;28;20043;-68
2023/06/26 11:05:33;;;;;;;1.77;0.90;;;27.00;44.30;;;;;;5090834;28;20028;-68
2023/06/26 11:08:11;;;;;;;1.60;0.85;;;27.10;44.40;;;;;;5086932;28;20044;-68
2023/06/26 11:10:49;;;;;;;1.75;1.00;;;27.00;43.90;;;;;;5083004;28;20024;-68
2023/06/26 11:13:18;;;;;;;1.70;1.00;;;27.10;44.20;;;;;;5081936;28;20077;-68
2023/06/26 11:15:46;;;;;;;1.33;1.00;;;27.10;44.10;;;;;;5083390;28;20025;-68
2023/06/26 11:18:13;;;;;;;1.15;0.98;;;27.10;43.90;;;;;;5086955;28;20024;-68
2023/06/26 11:20:38;;;;;;;2.13;1.02;;;27.20;44.70;;;;;;5085841;28;20032;-68
2023/06/26 11:23:06;;;;;;;2.35;0.82;;;27.30;44.30;;;;;;5081159;28;20046;-68
2023/06/26 11:25:35;;;;;;;2.67;0.90;;;27.20;44.40;;;;;;5079218;28;20075;-69
2023/06/26 11:28:00;;;;;;;1.45;0.80;;;27.00;44.30;;;;;;5079471;28;20032;-68
2023/06/26 11:30:27;;;;;;;1.63;0.80;;;26.90;44.10;;;;;;5082128;28;20489;-68
2023/06/26 11:32:52;;;;;;;1.13;0.88;;;26.90;43.90;;;;;;5080260;28;20032;-68
2023/06/26 11:35:30;;;;;;;1.27;0.90;;;26.90;43.70;;;;;;5088423;28;20035;-68
2023/06/26 11:38:06;;;;;;;1.15;0.77;;;27.00;43.60;;;;;;5080257;28;20025;-68
2023/06/26 11:40:34;;;;;;;1.08;0.68;;;27.30;43.50;;;;;;5081309;28;20078;-68
2023/06/26 11:43:01;;;;;;;1.70;0.88;;;27.30;43.10;;;;;;5083807;28;20093;-68
2023/06/26 11:45:33;;;;;;;1.40;0.80;;;27.10;42.70;;;;;;5083009;28;20062;-68
2023/06/26 11:48:00;;;;;;;1.35;0.82;;;27.10;43.10;;;;;;5083316;28;20482;-68
2023/06/26 11:50:26;;;;;;;2.15;0.90;;;27.20;42.80;;;;;;5091325;28;20019;-68
2023/06/26 11:52:59;;;;;;;1.73;0.95;;;27.30;42.80;;;;;;5085083;28;20035;-68
2023/06/26 11:55:26;;;;;;;1.88;1.00;;;27.50;42.80;;;;;;5087964;28;20094;-69
2023/06/26 11:57:56;;;;;;;1.92;0.90;;;27.50;42.80;;;;;;5082506;28;20033;-68
2023/06/26 12:00:23;;;;;;;1.80;1.00;;;27.40;43.20;;;;;;5087144;28;20102;-68
2023/06/26 12:02:49;;;;;;;1.35;0.80;;;27.40;43.20;;;;;;5082067;28;20133;-68
2023/06/26 12:05:16;;;;;;;1.35;1.00;;;27.40;43.10;;;;;;5081450;28;20031;-68
2023/06/26 12:07:49;;;;;;;1.67;1.00;;;27.60;42.80;;;;;;5081427;28;20474;-68
2023/06/26 12:10:16;;;;;;;1.63;0.82;;;27.80;42.50;;;;;;5084230;28;20088;-69
2023/06/26 12:12:42;;;;;;;2.40;1.20;;;27.80;42.40;;;;;;5080634;28;20020;-68
2023/06/26 12:15:11;;;;;;;1.17;0.90;;;27.70;42.20;;;;;;5083989;28;20565;-68
2023/06/26 12:17:39;;;;;;;1.40;0.88;;;27.50;42.60;;;;;;5085337;28;20111;-68
2023/06/26 12:20:07;;;;;;;1.58;1.15;;;27.30;42.70;;;;;;5080500;28;20067;-68
2023/06/26 12:22:35;;;;;;;1.23;0.82;;;27.20;42.90;;;;;;5085658;28;20024;-68
2023/06/26 12:25:01;;;;;;;1.63;1.05;;;27.20;43.10;;;;;;5087022;28;20035;-68
2023/06/26 12:27:27;;;;;;;1.70;0.98;;;27.20;43.00;;;;;;5085364;28;20109;-68
2023/06/26 12:29:54;;;;;;;1.50;1.00;;;27.20;42.80;;;;;;5087219;28;20070;-68
2023/06/26 12:32:24;;;;;;;2.38;1.00;;;27.10;42.60;;;;;;5082276;28;20055;-68
2023/06/26 12:34:50;;;;;;;1.70;1.00;;;27.20;42.30;;;;;;5080788;28;20024;-69
2023/06/26 12:37:16;;;;;;;1.67;0.90;;;27.30;42.10;;;;;;5078997;28;20089;-68
2023/06/26 12:39:50;;;;;;;2.97;0.80;;;27.30;42.10;;;;;;5079396;28;20429;-68
2023/06/26 12:42:17;;;;;;;2.83;1.15;;;27.30;42.20;;;;;;5079372;28;20024;-68
2023/06/26 12:44:43;;;;;;;2.17;1.10;;;27.20;42.20;;;;;;5082411;28;20103;-68
2023/06/26 12:47:10;;;;;;;1.63;1.00;;;27.10;41.90;;;;;;5081330;28;20131;-68
2023/06/26 12:49:41;;;;;;;1.35;0.90;;;27.40;42.20;;;;;;5079607;28;20552;-68